Time;durP1;ratioP1;P1;durP2;ratioP2;P2;SDS_P1;SDS_P2;PMS_P1;PMS_P2;Temp;Humidity;BMP_temperature;BMP_pressure;BME280_temperature;BME280_humidity;BME280_pressure;Samples;Min_cycle;Max_cycle;Signal;HPM_P1;HPM_P2
2022/04/10 00:01:06;;;;;;;3.47;2.90;;;4.80;99.90;;;;;;5079523;28;20443;-59
2022/04/10 00:03:32;;;;;;;4.38;3.45;;;4.70;99.90;;;;;;5089496;28;20225;-58
2022/04/10 00:05:58;;;;;;;3.53;3.23;;;4.80;99.90;;;;;;5081018;28;20187;-58
2022/04/10 00:08:23;;;;;;;3.55;3.25;;;4.70;99.90;;;;;;5090126;28;20181;-58
2022/04/10 00:10:49;;;;;;;4.73;3.67;;;4.80;99.90;;;;;;5080913;28;20182;-58
2022/04/10 00:13:15;;;;;;;6.53;4.80;;;4.70;99.90;;;;;;5084001;28;20200;-58
2022/04/10 00:15:41;;;;;;;4.70;3.70;;;5.00;99.90;;;;;;5085499;28;20181;-58
2022/04/10 00:18:06;;;;;;;3.73;3.07;;;4.70;99.90;;;;;;5087176;28;20646;-58
2022/04/10 00:20:32;;;;;;;3.50;3.20;;;5.00;99.90;;;;;;5079753;28;20197;-58
2022/04/10 00:22:57;;;;;;;3.87;3.23;;;4.30;99.90;;;;;;5068925;28;20628;-57
2022/04/10 00:25:23;;;;;;;5.93;3.67;;;5.00;99.90;;;;;;5087107;28;20625;-58
2022/04/10 00:27:49;;;;;;;4.07;2.85;;;4.30;99.90;;;;;;5089187;28;20695;-58
2022/04/10 00:30:16;;;;;;;6.43;3.57;;;4.90;99.90;;;;;;5084613;28;20190;-57
2022/04/10 00:32:42;;;;;;;3.67;3.35;;;4.80;99.90;;;;;;5083421;28;20201;-59
2022/04/10 00:35:09;;;;;;;3.40;3.13;;;4.90;99.90;;;;;;5088761;28;20180;-58
2022/04/10 00:37:35;;;;;;;4.63;3.20;;;4.80;99.90;;;;;;5088350;28;20549;-58
2022/04/10 00:40:02;;;;;;;4.13;3.70;;;4.90;99.90;;;;;;5081144;28;20181;-58
2022/04/10 00:42:35;;;;;;;3.58;3.28;;;4.80;99.90;;;;;;5088842;28;20209;-58
2022/04/10 00:45:01;;;;;;;3.08;2.72;;;4.50;99.90;;;;;;5087233;28;20261;-58
2022/04/10 00:47:27;;;;;;;3.30;3.00;;;5.00;99.90;;;;;;5086601;28;20245;-58
2022/04/10 00:49:52;;;;;;;6.77;3.47;;;4.50;99.90;;;;;;5086690;28;20477;-58
2022/04/10 00:52:22;;;;;;;4.53;3.23;;;5.00;99.90;;;;;;5092313;28;20211;-59
2022/04/10 00:54:48;;;;;;;4.75;3.13;;;4.90;99.90;;;;;;5096596;28;20183;-58
2022/04/10 00:57:14;;;;;;;3.25;2.95;;;5.20;99.90;;;;;;5090531;28;20716;-59
2022/04/10 00:59:40;;;;;;;4.75;3.00;;;5.20;99.90;;;;;;5090836;28;20200;-57
2022/04/10 01:02:05;;;;;;;6.13;3.37;;;4.80;99.90;;;;;;5087429;28;20279;-58
2022/04/10 01:04:31;;;;;;;3.40;3.10;;;5.20;99.90;;;;;;5091057;28;20198;-57
2022/04/10 01:06:59;;;;;;;3.47;2.93;;;4.60;99.90;;;;;;5089499;28;20200;-57
2022/04/10 01:09:25;;;;;;;5.95;4.05;;;4.60;99.90;;;;;;5088535;28;20445;-58
2022/04/10 01:11:54;;;;;;;7.13;3.27;;;4.90;99.90;;;;;;5091231;28;20185;-57
2022/04/10 01:14:20;;;;;;;3.90;3.30;;;5.10;99.90;;;;;;5090255;28;20204;-58
2022/04/10 01:16:49;;;;;;;3.67;3.10;;;5.00;99.90;;;;;;5088961;28;20193;-58
2022/04/10 01:19:16;;;;;;;3.85;3.08;;;5.20;99.90;;;;;;5086830;28;20511;-57
2022/04/10 01:21:46;;;;;;;5.35;3.22;;;5.10;99.90;;;;;;5092630;28;20216;-57
2022/04/10 01:24:13;;;;;;;3.85;3.55;;;4.90;99.90;;;;;;5083483;28;20614;-57
2022/04/10 01:26:40;;;;;;;4.00;3.33;;;4.80;99.90;;;;;;5086986;28;20236;-57
2022/04/10 01:29:08;;;;;;;4.50;3.50;;;4.60;99.90;;;;;;5087335;28;20189;-58
2022/04/10 01:31:39;;;;;;;3.65;3.35;;;4.30;99.90;;;;;;5085627;28;20709;-57
2022/04/10 01:34:07;;;;;;;4.75;3.38;;;5.10;99.90;;;;;;5091537;28;20212;-57
2022/04/10 01:36:34;;;;;;;6.50;3.25;;;4.90;99.90;;;;;;5088277;28;20181;-58
2022/04/10 01:39:02;;;;;;;4.30;3.90;;;4.60;99.90;;;;;;5087479;28;20196;-57
2022/04/10 01:41:30;;;;;;;4.15;3.75;;;4.70;99.90;;;;;;5088952;28;20276;-58
2022/04/10 01:43:57;;;;;;;4.18;3.60;;;4.90;99.90;;;;;;5091734;28;20671;-58
2022/04/10 01:46:25;;;;;;;4.80;3.47;;;4.70;99.90;;;;;;5088012;28;20247;-58
2022/04/10 01:48:50;;;;;;;3.60;3.30;;;5.10;99.90;;;;;;5090314;28;20279;-57
2022/04/10 01:51:16;;;;;;;4.23;3.10;;;5.50;99.90;;;;;;5087946;28;20272;-58
2022/04/10 01:53:42;;;;;;;5.80;3.20;;;5.10;99.90;;;;;;5086142;28;20213;-59
2022/04/10 01:56:10;;;;;;;5.72;3.92;;;5.00;99.90;;;;;;5091463;28;20534;-57
2022/04/10 01:58:43;;;;;;;4.38;3.15;;;4.70;99.90;;;;;;5091328;28;20184;-57
2022/04/10 02:01:14;;;;;;;3.95;3.47;;;4.70;99.90;;;;;;5087039;28;20562;-58
2022/04/10 02:03:40;;;;;;;3.40;3.10;;;5.20;99.90;;;;;;5091971;28;20208;-57
2022/04/10 02:06:08;;;;;;;3.93;3.53;;;5.30;99.90;;;;;;5088826;28;20249;-58
2022/04/10 02:08:35;;;;;;;5.32;3.58;;;4.60;99.90;;;;;;5069597;28;20465;-57
2022/04/10 02:11:17;;;;;;;3.53;3.20;;;4.90;99.90;;;;;;5086006;28;20176;-57
2022/04/10 02:13:44;;;;;;;4.20;3.50;;;5.00;99.90;;;;;;5091212;28;20200;-58
2022/04/10 02:16:18;;;;;;;3.38;3.08;;;4.60;99.90;;;;;;5078990;28;20173;-57
2022/04/10 02:18:44;;;;;;;5.50;3.40;;;4.60;99.90;;;;;;5085878;28;20185;-58
2022/04/10 02:21:10;;;;;;;3.83;3.53;;;5.50;99.90;;;;;;5082491;28;20263;-58
2022/04/10 02:23:37;;;;;;;5.05;3.83;;;4.90;99.90;;;;;;5089467;28;20201;-58
2022/04/10 02:26:03;;;;;;;4.60;3.40;;;4.30;99.90;;;;;;5089337;28;20195;-57
2022/04/10 02:28:29;;;;;;;4.75;3.70;;;4.80;99.90;;;;;;5087422;28;20662;-59
2022/04/10 02:30:55;;;;;;;4.80;3.00;;;4.80;99.90;;;;;;5088232;28;20238;-59
2022/04/10 02:33:21;;;;;;;5.63;4.60;;;4.70;99.90;;;;;;5090911;28;20545;-58
2022/04/10 02:35:46;;;;;;;4.53;3.30;;;4.80;99.90;;;;;;5088736;28;20207;-57
2022/04/10 02:38:12;;;;;;;3.60;3.30;;;4.30;99.90;;;;;;5086548;28;20185;-58
2022/04/10 02:40:38;;;;;;;5.17;3.60;;;4.10;99.90;;;;;;5084118;28;20184;-57
2022/04/10 02:43:04;;;;;;;4.03;3.23;;;4.80;99.90;;;;;;5082925;28;20244;-57
2022/04/10 02:45:29;;;;;;;3.80;3.45;;;4.50;99.90;;;;;;5081505;28;20189;-57
2022/04/10 02:47:55;;;;;;;4.07;3.60;;;4.30;99.90;;;;;;5089809;28;20266;-58
2022/04/10 02:50:21;;;;;;;5.70;3.60;;;4.20;99.90;;;;;;5091817;28;20185;-57
2022/04/10 02:52:48;;;;;;;3.47;3.17;;;3.70;99.90;;;;;;5087568;28;20205;-58
2022/04/10 02:55:14;;;;;;;5.55;3.50;;;4.30;99.90;;;;;;5086883;28;20177;-58
2022/04/10 02:57:39;;;;;;;6.23;3.47;;;4.20;99.90;;;;;;5089499;28;20192;-57
2022/04/10 03:00:07;;;;;;;4.47;4.07;;;3.90;99.90;;;;;;5083913;28;20279;-58
2022/04/10 03:02:32;;;;;;;9.85;3.83;;;4.20;99.90;;;;;;5087316;28;20196;-57
2022/04/10 03:04:58;;;;;;;4.77;3.60;;;4.40;99.90;;;;;;5089014;28;20219;-57
2022/04/10 03:07:23;;;;;;;7.87;4.00;;;3.50;99.90;;;;;;5090547;28;20550;-57
2022/04/10 03:09:49;;;;;;;4.97;4.00;;;4.00;99.90;;;;;;5091770;28;20215;-57
2022/04/10 03:12:15;;;;;;;10.10;4.37;;;4.00;99.90;;;;;;5088634;28;20203;-58
2022/04/10 03:14:40;;;;;;;4.47;4.07;;;4.50;99.90;;;;;;5087545;28;20443;-57
2022/04/10 03:17:06;;;;;;;4.30;3.73;;;3.60;99.90;;;;;;5082534;28;20570;-57
2022/04/10 03:19:32;;;;;;;4.33;3.93;;;3.30;99.90;;;;;;5086796;28;20200;-58
2022/04/10 03:21:57;;;;;;;4.10;3.80;;;3.80;99.90;;;;;;5085323;28;20185;-57
2022/04/10 03:24:23;;;;;;;5.20;4.07;;;3.90;99.90;;;;;;5086617;28;20203;-57
2022/04/10 03:26:49;;;;;;;5.73;4.10;;;3.50;99.90;;;;;;5089993;28;20711;-57
2022/04/10 03:29:15;;;;;;;5.13;4.15;;;4.30;99.90;;;;;;5089444;28;20665;-57
2022/04/10 03:31:40;;;;;;;4.77;3.77;;;3.70;99.90;;;;;;5082327;28;20192;-58
2022/04/10 03:34:06;;;;;;;4.90;4.40;;;3.20;99.90;;;;;;5090009;28;20681;-58
2022/04/10 03:36:32;;;;;;;4.23;3.80;;;3.80;99.90;;;;;;5087870;28;20724;-58
2022/04/10 03:38:57;;;;;;;4.60;4.23;;;3.80;99.90;;;;;;5088937;28;20439;-58
2022/04/10 03:41:23;;;;;;;5.77;3.80;;;3.30;99.90;;;;;;5087705;28;20184;-59
2022/04/10 03:43:49;;;;;;;8.70;4.20;;;3.60;99.90;;;;;;5088389;28;20450;-57
2022/04/10 03:46:14;;;;;;;11.00;4.37;;;3.00;99.90;;;;;;5086805;28;20188;-58
2022/04/10 03:48:40;;;;;;;4.33;3.90;;;3.00;99.90;;;;;;5091288;28;20260;-57
2022/04/10 03:51:05;;;;;;;5.77;4.13;;;3.40;99.90;;;;;;5090389;28;20184;-58
2022/04/10 03:53:33;;;;;;;4.70;4.30;;;3.00;99.90;;;;;;5083145;28;20298;-58
2022/04/10 03:55:59;;;;;;;6.72;4.65;;;3.00;99.90;;;;;;5084853;28;20435;-59
2022/04/10 03:58:25;;;;;;;6.70;4.60;;;3.50;99.90;;;;;;5083269;28;20180;-58
2022/04/10 04:00:51;;;;;;;5.30;4.60;;;3.60;99.90;;;;;;5088829;28;20838;-58
2022/04/10 04:03:17;;;;;;;5.70;5.10;;;3.30;99.90;;;;;;5089246;28;20704;-57
2022/04/10 04:05:43;;;;;;;5.78;4.97;;;3.50;99.90;;;;;;5088350;28;20534;-58
2022/04/10 04:08:08;;;;;;;7.40;4.80;;;3.90;99.90;;;;;;5088570;28;20286;-58
2022/04/10 04:10:34;;;;;;;6.20;5.50;;;4.00;99.90;;;;;;5080595;28;20719;-59
2022/04/10 04:13:00;;;;;;;5.00;4.60;;;3.80;99.90;;;;;;5088316;28;20204;-58
2022/04/10 04:15:26;;;;;;;5.80;5.23;;;4.10;99.90;;;;;;5086627;28;20185;-58
2022/04/10 04:17:51;;;;;;;5.78;5.05;;;4.00;99.90;;;;;;5083696;28;20804;-58
2022/04/10 04:20:17;;;;;;;5.00;4.57;;;4.10;99.90;;;;;;5084697;28;20196;-58
2022/04/10 04:22:43;;;;;;;5.77;5.23;;;4.10;99.90;;;;;;5081826;28;20209;-59
2022/04/10 04:25:09;;;;;;;5.40;4.97;;;3.60;99.90;;;;;;5088677;28;20207;-58
2022/04/10 04:27:34;;;;;;;6.00;5.40;;;4.00;99.90;;;;;;5086958;28;20204;-58
2022/04/10 04:30:01;;;;;;;6.80;5.70;;;4.20;99.90;;;;;;5080689;28;20183;-58
2022/04/10 04:32:27;;;;;;;5.60;5.10;;;4.30;99.90;;;;;;5075532;28;20678;-58
2022/04/10 04:34:52;;;;;;;5.13;4.63;;;4.40;99.90;;;;;;5090476;28;20180;-57
2022/04/10 04:37:18;;;;;;;5.10;4.60;;;4.90;99.90;;;;;;5087730;28;20196;-59
2022/04/10 04:39:44;;;;;;;6.10;5.20;;;4.40;99.90;;;;;;5081393;28;20710;-57
2022/04/10 04:42:09;;;;;;;5.87;5.10;;;4.50;99.90;;;;;;5087158;28;20185;-59
2022/04/10 04:44:35;;;;;;;6.20;5.57;;;4.60;99.90;;;;;;5089934;28;20187;-58
2022/04/10 04:47:00;;;;;;;6.00;5.40;;;4.20;99.90;;;;;;5082726;28;20192;-58
2022/04/10 04:49:26;;;;;;;6.40;5.73;;;4.50;99.90;;;;;;5089698;28;20179;-59
2022/04/10 04:51:52;;;;;;;6.10;5.00;;;4.60;99.90;;;;;;5086042;28;20246;-58
2022/04/10 04:54:18;;;;;;;5.78;5.28;;;4.70;99.90;;;;;;5084112;28;20457;-58
2022/04/10 04:56:44;;;;;;;6.13;5.63;;;4.80;99.90;;;;;;5084159;28;20185;-59
2022/04/10 04:59:09;;;;;;;6.20;5.60;;;4.70;99.90;;;;;;5089251;28;20493;-59
2022/04/10 05:01:35;;;;;;;5.63;5.03;;;4.50;99.90;;;;;;5087086;28;20188;-58
2022/04/10 05:04:01;;;;;;;6.83;5.67;;;4.30;99.90;;;;;;5084111;28;20217;-59
2022/04/10 05:06:27;;;;;;;6.40;5.90;;;4.50;99.90;;;;;;5088438;28;20750;-59
2022/04/10 05:08:53;;;;;;;6.10;5.50;;;4.70;99.90;;;;;;5089746;28;20189;-58
2022/04/10 05:11:18;;;;;;;6.72;5.00;;;5.20;99.90;;;;;;5087927;28;20445;-58
2022/04/10 05:13:44;;;;;;;6.40;5.73;;;5.00;99.90;;;;;;5085774;28;20249;-58
2022/04/10 05:16:10;;;;;;;6.67;5.50;;;4.30;99.90;;;;;;5083133;28;20192;-58
2022/04/10 05:18:36;;;;;;;6.27;4.97;;;4.40;99.90;;;;;;5089712;28;20750;-58
2022/04/10 05:21:02;;;;;;;6.03;5.50;;;4.60;99.90;;;;;;5071364;28;20184;-59
2022/04/10 05:23:29;;;;;;;7.30;5.80;;;5.30;99.90;;;;;;5082989;28;20217;-59
2022/04/10 05:25:54;;;;;;;6.03;5.43;;;5.00;99.90;;;;;;5092116;28;20180;-59
2022/04/10 05:28:20;;;;;;;5.67;5.10;;;5.10;99.90;;;;;;5089412;28;20298;-59
2022/04/10 05:30:46;;;;;;;6.87;5.57;;;5.20;99.90;;;;;;5081535;28;20635;-58
2022/04/10 05:33:11;;;;;;;5.10;4.70;;;5.80;99.90;;;;;;5080455;28;20301;-59
2022/04/10 05:35:37;;;;;;;8.00;5.60;;;5.50;99.90;;;;;;5085967;28;20643;-57
2022/04/10 05:38:04;;;;;;;5.40;4.97;;;5.30;99.90;;;;;;5091050;28;20194;-59
2022/04/10 05:40:29;;;;;;;6.85;5.72;;;5.50;99.90;;;;;;5084241;28;20198;-57
2022/04/10 05:42:55;;;;;;;5.80;5.30;;;5.60;99.90;;;;;;5087234;28;20253;-57
2022/04/10 05:45:21;;;;;;;8.50;5.33;;;5.60;99.90;;;;;;5077891;28;20186;-59
2022/04/10 05:47:46;;;;;;;6.50;5.80;;;5.50;99.90;;;;;;5095564;28;20278;-59
2022/04/10 05:50:13;;;;;;;5.87;5.07;;;5.70;99.90;;;;;;5091387;28;20236;-58
2022/04/10 05:52:40;;;;;;;6.18;4.95;;;5.70;99.90;;;;;;5087182;28;20220;-58
2022/04/10 05:55:07;;;;;;;5.40;4.90;;;5.80;99.90;;;;;;5085339;28;20678;-59
2022/04/10 05:57:34;;;;;;;5.57;4.85;;;5.80;99.90;;;;;;5086166;28;20190;-59
2022/04/10 06:00:00;;;;;;;6.03;5.30;;;5.90;99.90;;;;;;5090985;28;20649;-59
2022/04/10 06:02:26;;;;;;;6.03;5.03;;;5.70;99.90;;;;;;5087499;28;20211;-58
2022/04/10 06:04:51;;;;;;;5.23;4.73;;;5.90;99.90;;;;;;5088076;28;20452;-58
2022/04/10 06:07:17;;;;;;;6.80;6.07;;;6.20;99.90;;;;;;5092685;28;20464;-57
2022/04/10 06:09:42;;;;;;;5.37;4.87;;;5.80;99.90;;;;;;5080698;28;20185;-57
2022/04/10 06:12:09;;;;;;;5.40;4.87;;;6.00;99.90;;;;;;5090656;28;20556;-58
2022/04/10 06:14:34;;;;;;;5.35;4.85;;;6.10;99.90;;;;;;5087305;28;22376;-59
2022/04/10 06:17:00;;;;;;;7.93;4.70;;;6.70;99.90;;;;;;5083318;28;20185;-58
2022/04/10 06:19:27;;;;;;;5.80;4.33;;;7.20;99.90;;;;;;5087425;28;20177;-58
2022/04/10 06:21:53;;;;;;;5.10;4.32;;;7.00;99.60;;;;;;5101732;28;20637;-57
2022/04/10 06:24:20;;;;;;;4.90;4.10;;;7.00;99.60;;;;;;5090786;28;20706;-57
2022/04/10 06:26:48;;;;;;;5.70;4.70;;;7.10;99.90;;;;;;5093383;28;20702;-58
2022/04/10 06:29:14;;;;;;;5.45;4.45;;;7.10;99.20;;;;;;5084981;28;20173;-58
2022/04/10 06:31:40;;;;;;;5.65;4.30;;;7.30;99.20;;;;;;5085026;28;20271;-58
2022/04/10 06:34:06;;;;;;;5.87;5.00;;;7.30;98.90;;;;;;5091112;28;20693;-59
2022/04/10 06:36:31;;;;;;;8.43;7.40;;;7.10;99.10;;;;;;5091471;28;20176;-58
2022/04/10 06:38:57;;;;;;;5.60;4.17;;;7.50;98.90;;;;;;5091705;28;20458;-58
2022/04/10 06:41:23;;;;;;;7.73;3.90;;;7.60;98.40;;;;;;5083337;28;20219;-59
2022/04/10 06:43:48;;;;;;;5.00;4.13;;;7.80;98.00;;;;;;5092016;28;20193;-59
2022/04/10 06:46:14;;;;;;;4.40;3.80;;;7.80;97.70;;;;;;5088519;28;20541;-59
2022/04/10 06:48:39;;;;;;;5.80;4.50;;;7.70;97.10;;;;;;5090398;28;20184;-58
2022/04/10 06:51:05;;;;;;;5.13;4.37;;;7.90;97.30;;;;;;5087565;28;20184;-58
2022/04/10 06:53:31;;;;;;;4.90;4.20;;;7.90;97.10;;;;;;5093194;28;20215;-59
2022/04/10 06:55:56;;;;;;;4.57;4.17;;;8.00;96.80;;;;;;5090980;28;20524;-58
2022/04/10 06:58:22;;;;;;;6.77;4.47;;;8.10;96.70;;;;;;5086821;28;20192;-59
2022/04/10 07:00:52;;;;;;;4.18;3.78;;;8.00;96.30;;;;;;5083014;28;20649;-59
2022/04/10 07:03:18;;;;;;;5.40;4.22;;;7.60;96.20;;;;;;5087511;28;20271;-58
2022/04/10 07:05:44;;;;;;;5.00;4.47;;;8.30;96.90;;;;;;5086477;28;20683;-60
2022/04/10 07:08:10;;;;;;;4.47;4.07;;;8.10;96.50;;;;;;5087598;28;20788;-60
2022/04/10 07:10:39;;;;;;;7.53;4.18;;;8.40;96.10;;;;;;5087710;28;20176;-59
2022/04/10 07:13:05;;;;;;;4.63;4.22;;;8.70;95.30;;;;;;5090091;28;20857;-64
2022/04/10 07:15:31;;;;;;;5.53;4.73;;;8.70;94.90;;;;;;5089214;28;20188;-64
2022/04/10 07:17:57;;;;;;;4.47;4.07;;;8.60;94.90;;;;;;5087316;28;20936;-62
2022/04/10 07:20:23;;;;;;;4.38;3.97;;;8.80;94.60;;;;;;5085874;28;20937;-67
2022/04/10 07:25:33;;;;;;;4.85;4.45;;;8.70;93.90;;;;;;5084778;28;20235;-64
2022/04/10 07:27:58;;;;;;;4.47;4.07;;;9.20;92.80;;;;;;5091144;28;20673;-66
2022/04/10 07:30:24;;;;;;;5.00;4.37;;;9.90;92.50;;;;;;5085866;28;20221;-66
2022/04/10 07:32:51;;;;;;;4.90;4.40;;;10.10;91.40;;;;;;5082722;28;20494;-62
2022/04/10 07:35:17;;;;;;;5.43;4.30;;;9.90;91.70;;;;;;5087774;28;20188;-68
2022/04/10 07:37:43;;;;;;;3.70;3.40;;;9.90;91.40;;;;;;5089618;28;20193;-69
2022/04/10 07:40:09;;;;;;;5.13;4.23;;;10.40;91.30;;;;;;5084886;28;20272;-70
2022/04/10 07:42:43;;;;;;;6.78;4.38;;;10.30;90.40;;;;;;5071478;28;20656;-69
2022/04/10 07:45:10;;;;;;;4.80;4.20;;;10.70;89.90;;;;;;5069499;28;20189;-56
2022/04/10 07:47:36;;;;;;;4.30;3.80;;;10.30;89.30;;;;;;5087559;28;20212;-72
2022/04/10 07:50:03;;;;;;;4.30;4.00;;;11.20;88.50;;;;;;5086942;28;20200;-70
2022/04/10 07:52:29;;;;;;;4.57;4.18;;;11.70;87.40;;;;;;5070872;28;20298;-70
2022/04/10 07:54:55;;;;;;;5.50;3.88;;;12.30;83.80;;;;;;5082787;28;20295;-62
2022/04/10 07:57:20;;;;;;;5.93;5.43;;;12.40;82.30;;;;;;5087708;28;20475;-73
2022/04/10 07:59:46;;;;;;;4.27;3.77;;;11.90;81.30;;;;;;5089965;28;20209;-74
2022/04/10 08:02:12;;;;;;;5.20;4.20;;;11.90;80.70;;;;;;5082438;28;20282;-75
2022/04/10 08:04:38;;;;;;;7.27;4.90;;;11.90;81.00;;;;;;5068069;28;20200;-76
2022/04/10 08:07:04;;;;;;;5.38;4.15;;;12.30;80.60;;;;;;5071231;28;20223;-71
2022/04/10 08:09:30;;;;;;;4.87;4.27;;;13.00;78.60;;;;;;5085387;28;20188;-72
2022/04/10 08:11:55;;;;;;;5.00;4.20;;;13.70;73.30;;;;;;5069537;28;20832;-64
2022/04/10 08:14:21;;;;;;;4.60;4.10;;;13.90;70.70;;;;;;5087069;28;20287;-63
2022/04/10 08:16:47;;;;;;;4.70;4.30;;;14.10;70.80;;;;;;5088183;28;20180;-67
2022/04/10 08:19:13;;;;;;;5.07;4.60;;;14.80;69.70;;;;;;5071112;28;20184;-67
2022/04/10 08:21:39;;;;;;;5.10;4.63;;;15.00;65.70;;;;;;5086522;28;20222;-68
2022/04/10 08:24:05;;;;;;;4.50;4.10;;;15.00;67.70;;;;;;5087231;28;20192;-68
2022/04/10 08:26:32;;;;;;;4.72;4.30;;;14.30;66.00;;;;;;5087460;28;20560;-64
2022/04/10 08:28:57;;;;;;;4.80;4.40;;;13.90;69.40;;;;;;5088138;28;20181;-72
2022/04/10 08:31:24;;;;;;;4.60;4.20;;;15.20;67.80;;;;;;5083291;28;20180;-74
2022/04/10 08:33:51;;;;;;;4.78;4.38;;;14.80;66.70;;;;;;5074400;28;20207;-71
2022/04/10 08:36:16;;;;;;;5.50;4.18;;;14.10;65.60;;;;;;5087334;28;20181;-70
2022/04/10 08:38:42;;;;;;;4.90;4.50;;;13.50;68.10;;;;;;5081664;28;20193;-68
2022/04/10 08:41:08;;;;;;;5.37;4.00;;;13.30;69.30;;;;;;5084942;28;20236;-62
2022/04/10 08:43:35;;;;;;;6.07;4.13;;;13.10;69.50;;;;;;5091822;28;20548;-60
2022/04/10 08:46:02;;;;;;;4.80;4.40;;;12.80;69.10;;;;;;5069332;28;20257;-59
2022/04/10 08:48:28;;;;;;;3.72;3.42;;;12.80;70.10;;;;;;5090233;28;20241;-61
2022/04/10 08:50:56;;;;;;;7.20;3.87;;;12.70;70.70;;;;;;5080110;28;20268;-59
2022/04/10 08:53:24;;;;;;;3.42;3.13;;;12.40;71.90;;;;;;5085344;28;20208;-59
2022/04/10 08:55:50;;;;;;;5.10;4.38;;;12.40;69.90;;;;;;5079951;28;20176;-61
2022/04/10 08:58:16;;;;;;;3.85;3.53;;;12.40;68.20;;;;;;5086400;28;20186;-60
2022/04/10 09:00:43;;;;;;;4.73;3.80;;;12.30;70.70;;;;;;5078503;28;20184;-61
2022/04/10 09:03:08;;;;;;;3.58;3.28;;;12.70;70.60;;;;;;5089034;28;20287;-60
2022/04/10 09:05:34;;;;;;;4.40;3.93;;;12.60;71.70;;;;;;5082617;28;20595;-60
2022/04/10 09:08:10;;;;;;;5.33;3.67;;;13.00;71.30;;;;;;5091631;28;20208;-62
2022/04/10 09:11:00;;;;;;;4.75;4.35;;;13.20;67.70;;;;;;5083518;28;20184;-63
2022/04/10 09:13:28;;;;;;;4.18;3.80;;;13.50;67.10;;;;;;5091077;28;20271;-61
2022/04/10 09:16:10;;;;;;;5.75;4.05;;;13.90;65.50;;;;;;5081108;28;20192;-62
2022/04/10 09:18:49;;;;;;;4.72;4.20;;;14.30;64.30;;;;;;5093709;28;20263;-62
2022/04/10 09:21:15;;;;;;;4.63;3.80;;;13.90;64.80;;;;;;5086018;28;20243;-61
2022/04/10 09:23:43;;;;;;;4.32;3.92;;;14.40;64.70;;;;;;5091808;28;20677;-60
2022/04/10 09:26:08;;;;;;;5.65;4.20;;;14.00;64.30;;;;;;5090650;28;20276;-61
2022/04/10 09:28:42;;;;;;;4.53;4.13;;;13.60;67.10;;;;;;5093255;28;20240;-60
2022/04/10 09:31:25;;;;;;;4.97;4.03;;;13.40;66.70;;;;;;5073421;28;20184;-61
2022/04/10 09:33:52;;;;;;;5.75;4.00;;;12.30;67.90;;;;;;5077746;28;20202;-59
2022/04/10 09:36:40;;;;;;;4.05;3.75;;;12.20;70.20;;;;;;5091413;28;20179;-59
2022/04/10 09:39:09;;;;;;;5.03;4.63;;;11.70;73.50;;;;;;5089225;28;20545;-59
2022/04/10 09:41:36;;;;;;;6.85;3.85;;;11.40;73.50;;;;;;5088907;28;20576;-59
2022/04/10 09:44:12;;;;;;;5.05;3.78;;;11.10;74.60;;;;;;5091033;28;20221;-59
2022/04/10 09:46:39;;;;;;;3.88;3.58;;;11.30;73.90;;;;;;5083215;28;20209;-61
2022/04/10 09:49:10;;;;;;;4.10;3.70;;;11.10;73.00;;;;;;5073192;28;20262;-60
2022/04/10 09:51:36;;;;;;;5.05;4.00;;;11.00;74.50;;;;;;5090311;28;20177;-61
2022/04/10 09:54:05;;;;;;;3.77;3.40;;;11.10;72.40;;;;;;5085561;28;20198;-63
2022/04/10 09:56:32;;;;;;;5.38;3.30;;;11.00;71.90;;;;;;5084925;28;20197;-60
2022/04/10 09:59:01;;;;;;;3.45;2.97;;;11.50;68.90;;;;;;5088565;28;20183;-60
2022/04/10 10:01:27;;;;;;;3.33;3.03;;;12.40;64.90;;;;;;5079490;28;20680;-61
2022/04/10 10:03:56;;;;;;;3.92;3.28;;;12.30;65.20;;;;;;5083120;28;20230;-61
2022/04/10 10:06:23;;;;;;;5.38;3.60;;;12.60;66.00;;;;;;5077195;28;20176;-61
2022/04/10 10:08:49;;;;;;;5.85;4.38;;;12.50;65.80;;;;;;5088239;28;20275;-61
2022/04/10 10:11:16;;;;;;;4.68;2.83;;;12.70;64.50;;;;;;5088891;28;20222;-63
2022/04/10 10:13:42;;;;;;;3.25;3.05;;;12.50;62.30;;;;;;5090382;28;20198;-62
2022/04/10 10:16:09;;;;;;;4.13;2.80;;;12.30;61.60;;;;;;5081033;28;20205;-62
2022/04/10 10:18:36;;;;;;;3.50;3.20;;;12.50;62.90;;;;;;5087684;28;20677;-61
2022/04/10 10:21:03;;;;;;;5.40;3.40;;;12.40;62.90;;;;;;5087606;28;20614;-61
2022/04/10 10:23:28;;;;;;;5.57;3.15;;;13.00;63.00;;;;;;5087836;28;20196;-60
2022/04/10 10:26:14;;;;;;;3.60;3.30;;;13.30;61.50;;;;;;5089941;28;20180;-61
2022/04/10 10:29:08;;;;;;;3.20;2.92;;;14.10;59.80;;;;;;5085012;28;20195;-60
2022/04/10 10:31:52;;;;;;;4.28;3.85;;;13.90;58.60;;;;;;5084152;28;20188;-61
2022/04/10 10:34:23;;;;;;;3.53;3.20;;;13.70;58.00;;;;;;5089462;28;20212;-60
2022/04/10 10:36:49;;;;;;;6.00;3.63;;;13.20;60.90;;;;;;5091312;28;20183;-62
2022/04/10 10:39:14;;;;;;;5.43;3.77;;;12.70;63.50;;;;;;5087045;28;20184;-62
2022/04/10 10:41:40;;;;;;;3.57;3.20;;;12.50;64.30;;;;;;5088381;28;20440;-63
2022/04/10 10:44:17;;;;;;;4.03;3.63;;;12.10;67.40;;;;;;5089685;28;20221;-60
2022/04/10 10:47:00;;;;;;;4.38;4.07;;;11.80;72.20;;;;;;5081533;28;20199;-60
2022/04/10 10:49:31;;;;;;;7.25;4.18;;;11.30;72.60;;;;;;5090845;28;20182;-60
2022/04/10 10:51:58;;;;;;;5.25;4.25;;;11.40;74.00;;;;;;5091451;28;20522;-60
2022/04/10 10:54:34;;;;;;;4.40;4.00;;;10.90;74.90;;;;;;5088662;28;20555;-62
2022/04/10 10:57:26;;;;;;;5.30;4.05;;;10.80;76.20;;;;;;5081658;28;20628;-61
2022/04/10 11:00:03;;;;;;;6.43;4.35;;;10.80;78.00;;;;;;5079932;28;20663;-61
2022/04/10 11:02:33;;;;;;;4.65;4.25;;;10.60;78.40;;;;;;5090811;28;20602;-60
2022/04/10 11:04:58;;;;;;;6.43;4.70;;;10.50;79.80;;;;;;5091109;28;20249;-60
2022/04/10 11:07:28;;;;;;;5.03;4.63;;;10.40;81.10;;;;;;5090714;28;20213;-62
2022/04/10 11:10:14;;;;;;;5.63;4.97;;;10.30;81.80;;;;;;5081175;28;20214;-60
2022/04/10 11:12:46;;;;;;;7.47;4.60;;;10.60;84.50;;;;;;5082665;28;21543;-60
2022/04/10 11:15:18;;;;;;;4.25;3.85;;;11.10;80.50;;;;;;5087248;28;20195;-61
2022/04/10 11:17:44;;;;;;;3.70;3.13;;;11.70;75.90;;;;;;5086963;28;20559;-62
2022/04/10 11:20:11;;;;;;;4.40;4.00;;;12.90;71.70;;;;;;5088200;28;20698;-61
2022/04/10 11:22:44;;;;;;;3.10;2.90;;;13.40;67.00;;;;;;5089498;28;20210;-64
2022/04/10 11:25:10;;;;;;;4.00;3.70;;;12.90;65.60;;;;;;5085013;28;20188;-61
2022/04/10 11:27:51;;;;;;;3.75;3.45;;;12.30;65.60;;;;;;5087374;28;20208;-61
2022/04/10 11:30:24;;;;;;;4.25;3.85;;;11.70;67.90;;;;;;5073914;28;20214;-61
2022/04/10 11:33:00;;;;;;;3.70;3.40;;;11.50;69.60;;;;;;5069816;28;20194;-63
2022/04/10 11:35:29;;;;;;;4.70;3.92;;;11.50;70.00;;;;;;5083699;28;20192;-62
2022/04/10 11:38:00;;;;;;;3.40;3.10;;;11.40;70.50;;;;;;5082705;28;20199;-62
2022/04/10 11:40:31;;;;;;;4.10;3.80;;;11.70;70.40;;;;;;5088533;28;20182;-61
2022/04/10 11:42:59;;;;;;;5.28;3.65;;;11.70;70.60;;;;;;5076707;28;20296;-62
2022/04/10 11:45:27;;;;;;;4.45;4.05;;;12.20;71.80;;;;;;5080794;28;20187;-62
2022/04/10 11:47:53;;;;;;;4.32;3.50;;;12.20;69.00;;;;;;5089641;28;20230;-60
2022/04/10 11:50:20;;;;;;;3.40;3.20;;;11.80;70.10;;;;;;5086261;28;20222;-63
2022/04/10 11:53:06;;;;;;;4.05;3.72;;;12.40;70.00;;;;;;5083222;28;20462;-59
2022/04/10 11:55:37;;;;;;;7.20;4.03;;;12.40;67.40;;;;;;5081958;28;20179;-60
2022/04/10 11:58:17;;;;;;;3.67;3.38;;;12.50;69.10;;;;;;5082102;28;20184;-61
2022/04/10 12:00:58;;;;;;;3.30;2.95;;;12.60;68.60;;;;;;5084194;28;20193;-59
2022/04/10 12:03:29;;;;;;;4.28;3.20;;;13.10;66.70;;;;;;5084105;28;20219;-62
2022/04/10 12:05:55;;;;;;;3.90;3.60;;;13.60;65.30;;;;;;5088525;28;20203;-62
2022/04/10 12:08:22;;;;;;;3.88;3.55;;;13.10;64.30;;;;;;5082728;28;20207;-60
2022/04/10 12:10:59;;;;;;;4.50;3.83;;;13.20;64.90;;;;;;5091044;28;20184;-62
2022/04/10 12:13:37;;;;;;;5.13;3.45;;;12.40;66.50;;;;;;5076610;28;20200;-60
2022/04/10 12:16:16;;;;;;;5.32;4.00;;;12.10;68.70;;;;;;5080199;28;20649;-60
2022/04/10 12:18:55;;;;;;;4.40;4.00;;;12.30;69.80;;;;;;5079641;28;20183;-61
2022/04/10 12:21:22;;;;;;;4.00;3.60;;;12.00;68.10;;;;;;5085370;28;20220;-61
2022/04/10 12:24:03;;;;;;;4.20;3.80;;;12.20;69.50;;;;;;5086880;28;20206;-61
2022/04/10 12:26:31;;;;;;;6.07;4.07;;;12.00;67.20;;;;;;5084590;28;20717;-61
2022/04/10 12:28:57;;;;;;;5.03;3.08;;;12.20;68.40;;;;;;5086041;28;20248;-61
2022/04/10 12:31:24;;;;;;;5.20;3.43;;;12.80;64.30;;;;;;5087918;28;20672;-63
2022/04/10 12:33:50;;;;;;;4.20;3.40;;;12.90;65.20;;;;;;5085198;28;20457;-62
2022/04/10 12:36:21;;;;;;;4.03;3.00;;;12.90;65.10;;;;;;5071784;28;20172;-61
2022/04/10 12:38:51;;;;;;;3.05;2.85;;;13.40;65.30;;;;;;5089661;28;20191;-62
2022/04/10 12:41:28;;;;;;;3.88;3.58;;;13.20;65.80;;;;;;5088304;28;20671;-60
2022/04/10 12:44:04;;;;;;;5.22;3.83;;;13.40;65.70;;;;;;5077284;28;20204;-61
2022/04/10 12:46:39;;;;;;;4.68;4.07;;;13.90;67.00;;;;;;5079880;28;20176;-63
2022/04/10 12:49:11;;;;;;;4.18;3.75;;;13.90;68.00;;;;;;5089458;28;20183;-60
2022/04/10 12:51:50;;;;;;;5.13;4.63;;;13.20;67.70;;;;;;5085385;28;20228;-60
2022/04/10 12:54:16;;;;;;;4.25;3.65;;;12.90;69.80;;;;;;5085454;28;20206;-61
2022/04/10 12:56:42;;;;;;;7.40;3.60;;;13.40;69.10;;;;;;5083976;28;20377;-60
2022/04/10 12:59:08;;;;;;;5.03;3.50;;;13.10;67.30;;;;;;5088600;28;20521;-62